Time;durP1;ratioP1;P1;durP2;ratioP2;P2;SDS_P1;SDS_P2;PMS_P1;PMS_P2;Temp;Humidity;BMP_temperature;BMP_pressure;BME280_temperature;BME280_humidity;BME280_pressure;Samples;Min_cycle;Max_cycle;Signal;HPM_P1;HPM_P2
2023/07/23 00:00:01;;;;;;;3.77;2.80;;;;;;;13.93;84.95;97766.38;6216464;28;20322;-63
2023/07/23 00:03:04;;;;;;;3.90;2.50;;;;;;;14.14;84.98;97799.44;6227616;28;20231;-62
2023/07/23 00:06:06;;;;;;;3.97;2.70;;;;;;;13.93;85.08;97766.38;6208262;28;20234;-62
2023/07/23 00:09:10;;;;;;;3.77;2.80;;;;;;;13.93;85.06;97769.06;6228488;28;20216;-62
2023/07/23 00:12:12;;;;;;;2.50;2.20;;;;;;;14.07;85.25;97788.13;6226381;28;20224;-63
2023/07/23 00:15:14;;;;;;;2.87;2.60;;;;;;;14.05;85.06;97784.94;6215047;28;20599;-63
2023/07/23 00:18:18;;;;;;;2.90;2.60;;;;;;;14.01;85.19;97783.84;6231674;28;20255;-62
2023/07/23 00:21:20;;;;;;;3.37;2.43;;;;;;;14.00;85.31;97787.59;6228789;28;20642;-63
2023/07/23 00:24:23;;;;;;;3.03;2.70;;;;;;;14.00;85.38;97784.91;6232645;28;20228;-63
2023/07/23 00:27:25;;;;;;;2.60;2.40;;;;;;;13.96;85.65;97783.00;6230623;28;20596;-63
2023/07/23 00:30:27;;;;;;;3.50;2.50;;;;;;;13.94;85.60;97777.94;6215352;28;20364;-62
2023/07/23 00:33:32;;;;;;;3.67;2.67;;;;;;;13.93;85.56;97774.41;6229786;28;20334;-63
2023/07/23 00:36:34;;;;;;;4.20;2.50;;;;;;;13.91;85.96;97773.88;6231804;28;20242;-63
2023/07/23 00:39:37;;;;;;;4.17;2.90;;;;;;;13.84;85.93;97756.44;6228881;28;20239;-63
2023/07/23 00:42:39;;;;;;;4.57;2.70;;;;;;;13.80;85.68;97758.03;6232045;28;20700;-62
2023/07/23 00:45:42;;;;;;;2.43;2.23;;;;;;;13.85;85.79;97766.09;6228570;28;20300;-63
2023/07/23 00:48:44;;;;;;;2.87;2.60;;;;;;;13.73;86.16;97755.56;6224350;28;20701;-62
2023/07/23 00:51:46;;;;;;;2.83;2.30;;;;;;;13.73;86.32;97768.97;6229405;28;20357;-62
2023/07/23 00:54:49;;;;;;;2.93;2.37;;;;;;;13.65;86.54;97774.81;6227372;28;20588;-62
2023/07/23 00:57:52;;;;;;;2.60;2.40;;;;;;;13.51;86.91;97765.63;6231393;28;20744;-62
2023/07/23 01:00:54;;;;;;;2.87;2.47;;;;;;;13.42;87.11;97765.31;6228858;28;20262;-62
2023/07/23 01:03:56;;;;;;;4.17;2.90;;;;;;;13.44;87.07;97776.53;6228026;28;20700;-62
2023/07/23 01:07:02;;;;;;;3.60;2.40;;;;;;;13.38;87.21;97766.88;6222177;28;20231;-62
2023/07/23 01:10:05;;;;;;;2.67;2.20;;;;;;;13.35;87.79;97770.09;6208649;28;20254;-62
2023/07/23 01:13:07;;;;;;;2.53;2.33;;;;;;;13.32;87.66;97771.38;6225734;28;20318;-62
2023/07/23 01:16:10;;;;;;;3.70;2.23;;;;;;;13.29;87.91;97771.09;6226841;28;20293;-62
2023/07/23 01:19:14;;;;;;;3.67;2.60;;;;;;;13.25;88.16;97764.63;6191706;28;20215;-62
2023/07/23 01:22:16;;;;;;;2.80;2.30;;;;;;;13.18;88.58;97765.63;6225042;28;20232;-62
2023/07/23 01:25:19;;;;;;;3.17;2.80;;;;;;;13.15;88.64;97768.00;6211701;28;20239;-62
2023/07/23 01:28:22;;;;;;;3.77;2.70;;;;;;;12.52;88.54;97679.56;6229410;28;20272;-62
2023/07/23 01:31:24;;;;;;;3.07;2.53;;;;;;;13.07;88.83;97768.50;6229066;28;20227;-62
2023/07/23 01:34:27;;;;;;;3.10;2.60;;;;;;;13.03;89.06;97765.53;6224664;28;20224;-63
2023/07/23 01:37:30;;;;;;;3.67;2.80;;;;;;;12.97;89.09;97761.19;6233309;28;20223;-62
2023/07/23 01:40:32;;;;;;;4.80;2.50;;;;;;;12.87;89.24;97753.09;6203679;28;20239;-60
2023/07/23 01:43:36;;;;;;;3.17;2.60;;;;;;;12.90;89.75;97765.94;6234043;28;20243;-59
2023/07/23 01:46:39;;;;;;;2.80;2.17;;;;;;;12.88;89.75;97773.41;6235337;28;20256;-62
2023/07/23 01:49:41;;;;;;;3.27;2.77;;;;;;;12.83;90.14;97763.47;6206474;28;20232;-62
2023/07/23 01:52:43;;;;;;;3.63;3.33;;;;;;;12.60;90.43;97734.41;6226368;28;20232;-61
2023/07/23 01:55:46;;;;;;;2.77;2.30;;;;;;;12.80;90.59;97772.00;6208067;28;20736;-61
2023/07/23 01:58:48;;;;;;;6.70;3.00;;;;;;;12.66;90.59;97749.44;6212316;28;20231;-62
2023/07/23 02:01:50;;;;;;;4.43;2.60;;;;;;;12.61;90.93;97752.03;6221066;28;20309;-62
2023/07/23 02:04:53;;;;;;;3.60;2.83;;;;;;;12.75;90.76;97769.28;6203307;28;20366;-62
2023/07/23 02:07:55;;;;;;;3.03;2.70;;;;;;;12.71;90.98;97765.53;6195554;28;20232;-63
2023/07/23 02:11:02;;;;;;;2.77;2.57;;;;;;;12.71;90.89;97770.03;6225287;28;20323;-62
2023/07/23 02:14:04;;;;;;;3.50;2.40;;;;;;;12.70;91.28;97771.09;6226496;28;20275;-62
2023/07/23 02:17:09;;;;;;;4.03;2.57;;;;;;;12.64;90.85;97765.72;6225599;28;20231;-62
2023/07/23 02:20:16;;;;;;;3.00;2.70;;;;;;;12.49;91.05;97740.72;6210311;28;20239;-63
2023/07/23 02:23:18;;;;;;;3.00;2.60;;;;;;;12.65;91.07;97763.84;6208475;28;20228;-63
2023/07/23 02:26:21;;;;;;;3.13;2.80;;;;;;;12.62;91.39;97770.50;6222885;28;20228;-63
2023/07/23 02:29:23;;;;;;;3.00;2.70;;;;;;;12.60;91.46;97771.81;6206056;28;20235;-63
2023/07/23 02:32:26;;;;;;;3.40;2.67;;;;;;;12.56;91.53;97763.50;6210630;28;20223;-64
2023/07/23 02:35:28;;;;;;;2.90;2.70;;;;;;;12.60;91.64;97775.28;6209398;28;20368;-63
2023/07/23 02:38:30;;;;;;;3.87;3.00;;;;;;;12.59;91.61;97768.34;6225151;28;20235;-63
2023/07/23 02:41:32;;;;;;;3.80;2.97;;;;;;;12.59;91.42;97773.69;6227255;28;20301;-63
2023/07/23 02:44:35;;;;;;;3.73;2.80;;;;;;;12.59;91.68;97778.22;6228083;28;20242;-63
2023/07/23 02:47:37;;;;;;;2.70;2.37;;;;;;;12.58;91.46;97776.59;6221937;28;20236;-63
2023/07/23 02:50:40;;;;;;;3.30;2.83;;;;;;;12.55;91.76;97774.44;6229759;28;20223;-63
2023/07/23 02:53:42;;;;;;;3.50;2.50;;;;;;;12.54;91.40;97775.50;6219778;28;20273;-63
2023/07/23 02:56:45;;;;;;;2.93;2.63;;;;;;;12.53;91.39;97771.22;6234741;28;20611;-63
2023/07/23 02:59:47;;;;;;;3.20;2.53;;;;;;;12.48;91.43;97777.31;6226381;28;20363;-63
2023/07/23 03:02:49;;;;;;;3.23;2.73;;;;;;;12.30;91.67;97756.28;6209481;28;20235;-63
2023/07/23 03:05:52;;;;;;;4.00;2.47;;;;;;;12.39;91.92;97778.81;6222558;28;20590;-63
2023/07/23 03:08:54;;;;;;;3.70;2.33;;;;;;;12.38;92.24;97779.88;6209828;28;20242;-63
2023/07/23 03:11:56;;;;;;;3.20;2.63;;;;;;;12.37;92.01;97780.94;6227433;28;20768;-63
2023/07/23 03:15:01;;;;;;;4.00;3.00;;;;;;;12.37;92.43;97780.94;6206350;28;20231;-63
2023/07/23 03:18:03;;;;;;;3.90;3.03;;;;;;;12.35;92.23;97777.69;6208682;28;20313;-63
2023/07/23 03:21:06;;;;;;;3.60;2.70;;;;;;;12.33;92.55;97775.28;6190063;28;20779;-63
2023/07/23 03:24:08;;;;;;;3.30;2.60;;;;;;;12.21;92.24;97760.44;6223187;28;20244;-63
2023/07/23 03:27:10;;;;;;;3.27;2.97;;;;;;;12.29;92.50;97779.50;6220431;28;20776;-63
2023/07/23 03:30:13;;;;;;;3.20;2.80;;;;;;;12.28;92.25;97777.91;6224134;28;20304;-63
2023/07/23 03:33:15;;;;;;;3.50;2.83;;;;;;;12.23;92.82;97785.84;6224021;28;20227;-63
2023/07/23 03:36:24;;;;;;;3.77;3.17;;;;;;;12.24;93.04;97789.34;6225551;28;20215;-63
2023/07/23 03:39:27;;;;;;;3.70;2.77;;;;;;;12.20;92.65;97780.19;6206672;28;20229;-63
2023/07/23 03:42:30;;;;;;;4.53;2.97;;;;;;;12.23;93.02;97774.38;6226649;28;20227;-63
2023/07/23 03:45:32;;;;;;;4.77;2.70;;;;;;;12.16;93.08;97771.88;6226777;28;20309;-63
2023/07/23 03:48:34;;;;;;;2.83;2.53;;;;;;;12.14;92.95;97776.66;6221313;28;20219;-63
2023/07/23 03:51:37;;;;;;;2.80;2.20;;;;;;;12.24;93.42;97773.31;6204913;28;20318;-63
2023/07/23 03:54:39;;;;;;;4.20;2.90;;;;;;;12.19;92.91;97762.56;6216518;28;20215;-63
2023/07/23 03:57:41;;;;;;;4.47;3.27;;;;;;;12.27;93.06;97773.63;6227145;28;20223;-62
2023/07/23 04:00:43;;;;;;;4.13;2.83;;;;;;;12.28;93.03;97775.22;6226198;28;20223;-63
2023/07/23 04:03:46;;;;;;;3.23;2.60;;;;;;;12.27;93.20;97773.63;6222746;28;20244;-63
2023/07/23 04:06:48;;;;;;;3.13;2.53;;;;;;;12.27;93.08;97768.28;6208455;28;20227;-63
2023/07/23 04:09:50;;;;;;;2.87;2.57;;;;;;;12.12;93.48;97752.88;6225403;28;20232;-63
2023/07/23 04:12:53;;;;;;;3.90;2.90;;;;;;;12.28;93.50;97782.44;6189311;28;20232;-63
2023/07/23 04:15:55;;;;;;;3.17;2.80;;;;;;;12.29;93.58;97786.72;6224368;28;20277;-62
2023/07/23 04:18:57;;;;;;;5.63;3.03;;;;;;;12.29;93.74;97786.72;6222443;28;20705;-63
2023/07/23 04:22:00;;;;;;;2.63;2.40;;;;;;;12.19;93.89;97771.38;6226734;28;20366;-62
2023/07/23 04:25:02;;;;;;;3.13;2.83;;;;;;;12.26;94.22;97788.00;6223726;28;20333;-63
2023/07/23 04:28:07;;;;;;;2.43;2.23;;;;;;;12.24;94.54;97792.81;6219613;28;20705;-61
2023/07/23 04:31:09;;;;;;;3.60;2.97;;;;;;;12.24;94.72;97792.81;6208405;28;20259;-62
2023/07/23 04:34:12;;;;;;;4.63;2.90;;;;;;;12.14;94.81;97780.13;6206283;28;20223;-63
2023/07/23 04:37:15;;;;;;;2.90;2.60;;;;;;;12.25;94.58;97791.75;6223313;28;20259;-62
2023/07/23 04:40:21;;;;;;;3.03;2.70;;;;;;;12.11;95.19;97769.13;6224668;28;20310;-62
2023/07/23 04:43:23;;;;;;;3.73;3.00;;;;;;;12.26;95.03;97781.88;6227661;28;20757;-63
2023/07/23 04:46:26;;;;;;;3.77;2.77;;;;;;;12.29;95.50;97786.72;6221171;28;20362;-63
2023/07/23 04:49:29;;;;;;;5.43;3.17;;;;;;;12.32;95.40;97791.56;6222656;28;20235;-62
2023/07/23 04:52:31;;;;;;;3.40;2.87;;;;;;;12.17;95.61;97767.31;6214920;28;20709;-63
2023/07/23 04:55:33;;;;;;;2.83;2.63;;;;;;;12.34;95.62;97786.78;6220221;28;20728;-63
2023/07/23 04:58:36;;;;;;;5.43;2.90;;;;;;;12.21;96.29;97765.78;6223895;28;20599;-63
2023/07/23 05:01:38;;;;;;;2.93;2.63;;;;;;;12.39;96.38;97802.84;6227182;28;20279;-63
2023/07/23 05:04:40;;;;;;;4.77;2.80;;;;;;;12.40;96.34;97802.59;6224901;28;20274;-63
2023/07/23 05:07:42;;;;;;;5.20;2.80;;;;;;;12.41;96.61;97790.03;6226415;28;20284;-62
2023/07/23 05:10:45;;;;;;;3.33;2.87;;;;;;;12.32;96.50;97773.69;6231492;28;20313;-63
2023/07/23 05:13:48;;;;;;;3.10;2.80;;;;;;;12.52;96.81;97799.81;6229177;28;20239;-62
2023/07/23 05:16:50;;;;;;;2.60;2.40;;;;;;;12.55;97.18;97799.28;6231750;28;20254;-63
2023/07/23 05:19:52;;;;;;;3.70;3.10;;;;;;;12.61;97.18;97808.16;6227839;28;20744;-62
2023/07/23 05:22:55;;;;;;;3.70;2.80;;;;;;;12.65;97.34;97796.72;6226669;28;20236;-62
2023/07/23 05:25:58;;;;;;;3.27;2.77;;;;;;;12.72;97.48;97803.75;6231170;28;20235;-63
2023/07/23 05:29:02;;;;;;;3.20;2.90;;;;;;;12.79;97.71;97799.00;6225405;28;20717;-63
2023/07/23 05:32:05;;;;;;;3.80;3.20;;;;;;;12.84;97.63;97799.84;6233355;28;20713;-63
2023/07/23 05:35:10;;;;;;;3.13;2.50;;;;;;;12.71;97.52;97765.53;6212807;28;20224;-62
2023/07/23 05:38:12;;;;;;;3.60;3.10;;;;;;;12.97;97.37;97795.97;6230474;28;20232;-62
2023/07/23 05:41:14;;;;;;;3.17;2.87;;;;;;;13.06;97.63;97794.44;6230395;28;20331;-62
2023/07/23 05:44:17;;;;;;;2.90;2.60;;;;;;;13.16;97.36;97794.53;6230613;28;20239;-63
2023/07/23 05:47:19;;;;;;;3.30;3.00;;;;;;;13.20;97.68;97788.66;6219234;28;20223;-62
2023/07/23 05:50:22;;;;;;;3.23;2.93;;;;;;;13.36;97.90;97803.81;6230634;28;20220;-62
2023/07/23 05:53:24;;;;;;;3.30;3.00;;;;;;;13.43;97.54;97791.00;6229657;28;20228;-62
2023/07/23 05:56:27;;;;;;;4.80;3.37;;;;;;;13.58;97.57;97796.44;6229145;28;20239;-62
2023/07/23 05:59:30;;;;;;;4.57;3.30;;;;;;;13.59;97.66;97775.84;6209475;28;20232;-62
2023/07/23 06:02:34;;;;;;;4.50;3.00;;;;;;;13.87;97.45;97791.53;6226700;28;20253;-62
2023/07/23 06:05:37;;;;;;;3.83;3.00;;;;;;;14.03;96.80;97791.59;6215770;28;20232;-62
2023/07/23 06:08:39;;;;;;;2.80;2.60;;;;;;;14.17;95.84;97790.84;6211641;28;20236;-63
2023/07/23 06:11:42;;;;;;;4.20;3.07;;;;;;;14.24;95.52;97771.88;6229804;28;20317;-62
2023/07/23 06:14:44;;;;;;;4.93;2.83;;;;;;;14.50;94.47;97791.53;6229019;28;20329;-62
2023/07/23 06:17:48;;;;;;;4.20;2.70;;;;;;;14.67;93.33;97786.75;6227632;28;20285;-62
2023/07/23 06:20:51;;;;;;;4.27;2.77;;;;;;;14.83;92.79;97784.91;6227589;28;20783;-62
2023/07/23 06:23:53;;;;;;;2.80;2.50;;;;;;;14.94;92.35;97781.16;6229379;28;20227;-62
2023/07/23 06:26:56;;;;;;;3.47;2.77;;;;;;;15.06;92.06;97775.53;6228589;28;20232;-62
2023/07/23 06:29:58;;;;;;;2.57;2.37;;;;;;;15.26;91.76;97782.75;6228758;28;20224;-62
2023/07/23 06:33:00;;;;;;;4.23;2.80;;;;;;;15.61;89.96;97789.97;6229066;28;20235;-62
2023/07/23 06:36:03;;;;;;;3.60;2.83;;;;;;;15.90;88.85;97789.41;6221865;28;20319;-62
2023/07/23 06:39:05;;;;;;;3.17;2.87;;;;;;;16.23;85.69;97790.63;6228708;28;20232;-62
2023/07/23 06:42:08;;;;;;;2.97;2.67;;;;;;;16.51;83.91;97791.84;6222907;28;20248;-61
2023/07/23 06:45:11;;;;;;;9.33;7.80;;;;;;;16.74;83.48;97787.69;6222373;28;20287;-62
2023/07/23 06:48:15;;;;;;;7.73;6.43;;;;;;;16.96;83.14;97787.31;6227803;28;20223;-62
2023/07/23 06:51:17;;;;;;;4.87;4.37;;;;;;;17.14;82.44;97786.63;6221933;28;20575;-62
2023/07/23 06:54:19;;;;;;;3.17;2.87;;;;;;;17.36;81.25;97791.56;6228315;28;20207;-62
2023/07/23 06:57:24;;;;;;;3.20;2.60;;;;;;;17.45;80.50;97778.28;6219971;28;20227;-62
2023/07/23 07:00:27;;;;;;;4.43;2.60;;;;;;;17.81;76.44;97788.72;6208312;28;20232;-61
2023/07/23 07:03:30;;;;;;;2.47;2.27;;;;;;;18.05;74.54;97787.66;6224171;28;20337;-62
2023/07/23 07:06:32;;;;;;;3.63;2.27;;;;;;;18.23;75.67;97779.91;6229319;28;20370;-62
2023/07/23 07:09:34;;;;;;;3.73;2.67;;;;;;;18.43;74.73;97792.31;6227078;28;20224;-61
2023/07/23 07:12:37;;;;;;;2.77;2.37;;;;;;;18.53;73.33;97776.81;6225552;28;20231;-61
2023/07/23 07:15:41;;;;;;;3.80;2.70;;;;;;;18.74;72.49;97771.94;6227207;28;20220;-61
2023/07/23 07:18:43;;;;;;;2.37;2.17;;;;;;;19.02;71.13;97782.88;6210099;28;20324;-61
2023/07/23 07:21:46;;;;;;;3.40;2.60;;;;;;;19.24;69.37;97777.66;6202273;28;20263;-62
2023/07/23 07:24:48;;;;;;;3.03;2.73;;;;;;;19.46;67.96;97777.03;6221130;28;20224;-61
2023/07/23 07:27:51;;;;;;;4.30;2.97;;;;;;;19.62;68.90;97784.88;6221443;28;20224;-61
2023/07/23 07:30:58;;;;;;;3.40;2.70;;;;;;;19.74;68.74;97783.28;6223078;28;20399;-61
2023/07/23 07:34:00;;;;;;;2.87;2.13;;;;;;;19.82;68.15;97769.09;6223330;28;20803;-61
2023/07/23 07:37:03;;;;;;;4.40;2.40;;;;;;;20.01;65.84;97777.09;6222802;28;20712;-62
2023/07/23 07:40:06;;;;;;;2.53;2.10;;;;;;;20.15;64.59;97765.47;6207338;28;20227;-61
2023/07/23 07:43:10;;;;;;;4.30;2.43;;;;;;;20.22;62.82;97757.75;6223021;28;20235;-61
2023/07/23 07:46:12;;;;;;;4.00;2.40;;;;;;;20.44;61.98;97767.84;6222128;28;20595;-61
2023/07/23 07:49:15;;;;;;;2.33;2.13;;;;;;;20.59;59.72;97775.66;6223751;28;20294;-62
2023/07/23 07:52:17;;;;;;;3.03;2.73;;;;;;;20.75;57.90;97779.63;6215541;28;20283;-61
2023/07/23 07:55:19;;;;;;;2.53;2.30;;;;;;;20.87;57.24;97777.19;6204563;28;20928;-61
2023/07/23 07:58:25;;;;;;;2.60;2.30;;;;;;;21.01;53.70;97769.00;6224216;28;20238;-61
2023/07/23 08:01:28;;;;;;;2.50;2.27;;;;;;;21.22;52.55;97769.31;6226507;28;20728;-61
2023/07/23 08:04:31;;;;;;;4.17;2.40;;;;;;;21.38;54.11;97767.88;6221091;28;20228;-61
2023/07/23 08:07:35;;;;;;;2.53;2.27;;;;;;;21.50;54.05;97775.41;6223876;28;20224;-61
2023/07/23 08:10:38;;;;;;;2.77;2.50;;;;;;;21.41;53.45;97741.25;6221510;28;20228;-61
2023/07/23 08:13:41;;;;;;;3.00;2.47;;;;;;;21.83;51.36;97769.69;6207012;28;20231;-62
2023/07/23 08:16:43;;;;;;;7.33;4.03;;;;;;;21.84;52.47;97763.94;6222981;28;20245;-61
2023/07/23 08:19:46;;;;;;;4.40;2.97;;;;;;;21.97;53.72;97767.66;6221827;28;20224;-61
2023/07/23 08:22:49;;;;;;;2.93;2.63;;;;;;;22.03;54.74;97768.31;6224541;28;20247;-61
2023/07/23 08:25:55;;;;;;;3.17;2.60;;;;;;;22.14;52.78;97769.66;6220569;28;20223;-61
2023/07/23 08:29:06;;;;;;;4.63;2.50;;;;;;;22.28;51.54;97759.47;6221589;28;20367;-61
2023/07/23 08:32:13;;;;;;;3.00;2.60;;;;;;;22.51;49.76;97762.88;6219430;28;20235;-60
2023/07/23 08:35:17;;;;;;;3.23;2.73;;;;;;;22.57;49.88;97763.53;6237151;28;20561;-61
2023/07/23 08:38:21;;;;;;;3.37;2.50;;;;;;;22.56;49.82;97745.63;6238509;28;20205;-61
2023/07/23 08:41:40;;;;;;;2.73;2.27;;;;;;;22.76;47.84;97731.44;6203499;28;20710;-62
2023/07/23 08:45:24;;;;;;;5.50;2.83;;;;;;;23.30;45.64;97750.91;6212970;28;20204;-61
2023/07/23 08:48:54;;;;;;;4.57;2.70;;;;;;;23.37;47.52;97758.56;6208643;28;20228;-61
2023/07/23 08:51:58;;;;;;;2.40;2.20;;;;;;;23.43;47.21;97760.78;6193179;28;20592;-61
2023/07/23 08:55:01;;;;;;;2.78;2.58;;;;;;;23.55;44.64;97757.41;6204393;28;20319;-61
2023/07/23 08:58:04;;;;;;;3.35;2.78;;;;;;;23.63;44.84;97750.31;6205959;28;20235;-61
2023/07/23 09:01:08;;;;;;;3.03;2.72;;;;;;;23.64;43.71;97755.50;6206231;28;20246;-61
2023/07/23 09:04:13;;;;;;;4.32;2.70;;;;;;;23.89;43.24;97751.06;6203869;28;20330;-61
2023/07/23 09:07:19;;;;;;;2.97;2.67;;;;;;;24.07;42.93;97750.97;6203019;28;20319;-61
2023/07/23 09:10:22;;;;;;;4.47;3.03;;;;;;;24.15;42.01;97748.22;6183296;28;20383;-61
2023/07/23 09:13:33;;;;;;;5.13;2.83;;;;;;;24.16;44.99;97749.81;6202845;28;20239;-61
2023/07/23 09:16:44;;;;;;;4.05;2.78;;;;;;;24.11;46.49;97746.47;6198794;28;20692;-61
2023/07/23 09:19:47;;;;;;;3.03;2.72;;;;;;;24.07;46.17;97750.97;6202676;28;20316;-57
2023/07/23 09:22:50;;;;;;;3.42;2.63;;;;;;;24.12;42.63;97737.19;6204337;28;20244;-60
2023/07/23 09:25:52;;;;;;;3.15;2.80;;;;;;;24.36;41.29;97750.19;6202778;28;20343;-60
2023/07/23 09:28:58;;;;;;;3.25;2.65;;;;;;;24.42;43.33;97737.97;6184115;28;20278;-61
2023/07/23 09:32:00;;;;;;;3.20;2.75;;;;;;;24.50;42.82;97744.50;6203069;28;20221;-60
2023/07/23 09:35:03;;;;;;;3.95;2.90;;;;;;;24.37;42.24;97711.75;6204374;28;20314;-58
2023/07/23 09:38:05;;;;;;;3.47;3.05;;;;;;;24.55;43.82;97731.50;6205981;28;20784;-60
2023/07/23 09:41:08;;;;;;;3.85;2.97;;;;;;;24.60;41.61;97727.78;6219859;28;20239;-59
2023/07/23 09:44:12;;;;;;;4.22;3.05;;;;;;;25.01;35.77;97720.69;6211826;28;20250;-59
2023/07/23 09:47:15;;;;;;;3.50;3.20;;;;;;;25.21;40.58;97711.69;6219604;28;20261;-59
2023/07/23 09:50:17;;;;;;;3.22;2.92;;;;;;;25.20;39.53;97705.44;6213554;28;20227;-56
2023/07/23 09:53:20;;;;;;;3.72;3.33;;;;;;;25.29;43.16;97702.63;6201335;28;20228;-56
2023/07/23 09:56:23;;;;;;;3.33;2.97;;;;;;;25.25;39.12;97696.25;6223195;28;20224;-57
2023/07/23 09:59:28;;;;;;;3.00;2.72;;;;;;;25.27;38.29;97677.66;6226143;28;20232;-57
2023/07/23 10:02:35;;;;;;;3.47;3.17;;;;;;;25.34;37.75;97674.34;6221389;28;20325;-57
2023/07/23 10:05:38;;;;;;;5.65;3.42;;;;;;;25.53;38.47;97684.72;6220692;28;20239;-58
2023/07/23 10:08:42;;;;;;;4.85;3.13;;;;;;;25.49;41.45;97679.13;6223263;28;20611;-57
2023/07/23 10:11:45;;;;;;;3.30;3.00;;;;;;;25.65;40.15;97680.06;6228368;28;20227;-56
2023/07/23 10:14:48;;;;;;;3.20;2.90;;;;;;;25.54;40.50;97662.56;6227526;28;20246;-57
2023/07/23 10:17:54;;;;;;;3.28;2.88;;;;;;;25.85;35.91;97685.78;6227960;28;20239;-57
2023/07/23 10:20:57;;;;;;;5.10;3.22;;;;;;;25.90;34.34;97663.72;6223754;28;20236;-57
2023/07/23 10:24:00;;;;;;;3.50;2.97;;;;;;;26.10;36.53;97676.44;6227636;28;20384;-57
2023/07/23 10:27:14;;;;;;;3.10;2.80;;;;;;;26.18;36.62;97675.50;6221343;28;20235;-58
2023/07/23 10:30:18;;;;;;;3.22;2.88;;;;;;;26.20;37.03;97662.28;6218528;28;20294;-57
2023/07/23 10:33:27;;;;;;;4.82;3.88;;;;;;;26.27;37.47;97669.94;6225698;28;20293;-57
2023/07/23 10:36:30;;;;;;;4.70;3.05;;;;;;;26.30;38.90;97671.16;6218753;28;20227;-57
2023/07/23 10:39:42;;;;;;;4.43;3.50;;;;;;;26.36;34.63;97665.13;6224883;28;20330;-57
2023/07/23 10:42:44;;;;;;;3.47;2.92;;;;;;;26.48;33.70;97653.38;6226278;28;20752;-57
2023/07/23 10:46:02;;;;;;;3.50;3.10;;;;;;;26.54;32.11;97653.94;6226721;28;20232;-57
2023/07/23 10:49:05;;;;;;;5.30;3.35;;;;;;;26.57;34.46;97647.78;6226727;28;20244;-57
2023/07/23 10:52:16;;;;;;;3.50;3.20;;;;;;;26.63;30.02;97640.94;6226657;28;20241;-57
2023/07/23 10:55:47;;;;;;;3.33;3.03;;;;;;;26.69;30.34;97639.53;6223697;28;20239;-57
2023/07/23 10:58:51;;;;;;;3.70;3.28;;;;;;;26.74;31.99;97636.53;6213403;28;20224;-57
2023/07/23 11:01:54;;;;;;;3.38;2.88;;;;;;;26.78;31.69;97648.38;6224444;28;20228;-56
2023/07/23 11:04:57;;;;;;;2.97;2.67;;;;;;;26.85;31.69;97632.19;6224993;28;20248;-57
2023/07/23 11:08:17;;;;;;;4.18;3.33;;;;;;;26.96;32.54;97632.47;6223674;28;20571;-57
2023/07/23 11:11:27;;;;;;;4.65;3.25;;;;;;;27.01;30.03;97624.78;6226341;28;20323;-57
2023/07/23 11:14:30;;;;;;;3.20;2.90;;;;;;;27.10;30.42;97623.88;6224364;28;20226;-57
2023/07/23 11:17:33;;;;;;;5.05;3.60;;;;;;;27.06;30.73;97596.41;6233029;28;20227;-57
2023/07/23 11:20:36;;;;;;;3.22;2.60;;;;;;;27.16;31.37;97612.31;6227365;28;20702;-57
2023/07/23 11:23:38;;;;;;;3.28;2.97;;;;;;;27.09;32.13;97614.84;6220201;28;20720;-57
2023/07/23 11:26:41;;;;;;;4.32;3.20;;;;;;;27.15;33.24;97610.72;6208519;28;20242;-57
2023/07/23 11:29:44;;;;;;;4.40;2.72;;;;;;;27.11;35.22;97612.56;6224848;28;20439;-57
2023/07/23 11:32:48;;;;;;;3.22;2.90;;;;;;;27.15;33.74;97601.72;6220361;28;20266;-57
2023/07/23 11:35:50;;;;;;;3.80;3.30;;;;;;;27.30;31.14;97600.94;6223410;28;20297;-57
2023/07/23 11:38:57;;;;;;;3.25;2.75;;;;;;;27.31;30.53;97588.03;6222970;28;20223;-57
2023/07/23 11:41:59;;;;;;;3.35;2.80;;;;;;;27.48;30.76;97593.94;6203743;28;20238;-57
2023/07/23 11:45:04;;;;;;;3.83;3.20;;;;;;;27.55;32.65;97593.31;6222677;28;20453;-53
2023/07/23 11:48:14;;;;;;;4.80;3.72;;;;;;;27.46;31.89;97566.13;6226517;28;20216;-56
2023/07/23 11:51:17;;;;;;;3.55;2.92;;;;;;;27.71;30.81;97582.38;6232058;28;20238;-57
2023/07/23 11:54:19;;;;;;;3.40;3.10;;;;;;;27.48;30.37;97532.94;6229138;28;20211;-56
2023/07/23 11:57:25;;;;;;;4.22;3.25;;;;;;;27.97;29.94;97573.56;6219755;28;20321;-56
2023/07/23 12:00:37;;;;;;;3.47;3.17;;;;;;;27.99;29.84;97565.78;6227419;28;20238;-57
2023/07/23 12:03:44;;;;;;;4.18;3.78;;;;;;;28.09;29.85;97558.94;6220951;28;20972;-58
2023/07/23 12:06:47;;;;;;;5.82;3.38;;;;;;;28.04;32.29;97562.75;6228382;28;20716;-57
2023/07/23 12:09:51;;;;;;;3.30;2.90;;;;;;;28.19;29.15;97550.16;6231544;28;20238;-57
2023/07/23 12:12:53;;;;;;;3.30;3.00;;;;;;;28.35;29.05;97544.63;6232385;28;20239;-57
2023/07/23 12:15:57;;;;;;;3.88;2.60;;;;;;;28.34;30.19;97549.31;6231642;28;20697;-57
2023/07/23 12:19:05;;;;;;;3.50;2.85;;;;;;;28.41;30.75;97552.19;6231629;28;20235;-57
2023/07/23 12:22:08;;;;;;;3.80;3.08;;;;;;;28.66;30.20;97527.97;6226649;28;20240;-57
2023/07/23 12:25:10;;;;;;;4.55;2.75;;;;;;;28.79;32.12;97526.66;6227290;28;20236;-57
2023/07/23 12:28:12;;;;;;;3.42;2.80;;;;;;;28.92;30.80;97526.47;6232565;28;20932;-57
2023/07/23 12:31:14;;;;;;;3.78;3.00;;;;;;;29.02;30.82;97521.19;6232268;28;20325;-58
2023/07/23 12:34:19;;;;;;;2.58;2.38;;;;;;;29.03;30.38;97522.78;6226688;28;20802;-59
2023/07/23 12:37:22;;;;;;;4.43;2.97;;;;;;;29.05;31.07;97520.44;6222906;28;20224;-57
2023/07/23 12:40:25;;;;;;;3.42;3.10;;;;;;;29.11;30.02;97514.66;6228942;28;20236;-58
2023/07/23 12:43:27;;;;;;;3.75;3.00;;;;;;;29.07;29.36;97498.16;6224466;28;20243;-57
2023/07/23 12:46:30;;;;;;;4.78;2.80;;;;;;;29.09;31.37;97500.53;6212003;28;20261;-57
2023/07/23 12:49:32;;;;;;;3.45;3.03;;;;;;;28.95;30.65;97512.84;6228852;28;20227;-58
2023/07/23 12:52:34;;;;;;;3.10;2.47;;;;;;;28.83;31.16;97502.03;6231504;28;20262;-45
2023/07/23 12:55:37;;;;;;;3.30;2.88;;;;;;;28.70;31.22;97509.66;6231425;28;20235;-44
2023/07/23 12:58:39;;;;;;;3.47;2.80;;;;;;;28.67;30.71;97496.69;6231310;28;20234;-45
2023/07/23 13:01:41;;;;;;;3.28;2.80;;;;;;;28.68;30.14;97494.72;6231419;28;20242;-44
2023/07/23 13:04:45;;;;;;;3.95;2.80;;;;;;;28.80;31.52;97494.53;6230487;28;20224;-46
2023/07/23 13:07:47;;;;;;;4.47;2.85;;;;;;;28.72;30.36;97487.38;6223303;28;20331;-48
2023/07/23 13:10:50;;;;;;;3.20;2.90;;;;;;;28.76;30.41;97485.44;6228863;28;20267;-41
2023/07/23 13:13:53;;;;;;;3.50;3.00;;;;;;;28.86;30.16;97484.03;6230069;28;20275;-45
2023/07/23 13:16:57;;;;;;;4.60;3.08;;;;;;;29.07;29.78;97486.41;6223424;28;20227;-44
2023/07/23 13:20:00;;;;;;;3.63;3.10;;;;;;;29.03;30.75;97486.31;6217760;28;20240;-46
2023/07/23 13:23:04;;;;;;;3.60;2.50;;;;;;;28.88;31.03;97473.53;6226799;28;20242;-43
2023/07/23 13:26:07;;;;;;;3.20;2.78;;;;;;;28.79;31.22;97474.56;6233389;28;20228;-44
2023/07/23 13:29:11;;;;;;;4.80;2.80;;;;;;;28.78;31.97;97474.94;6228243;28;20224;-44
2023/07/23 13:32:14;;;;;;;2.70;2.50;;;;;;;28.56;31.71;97467.47;6224490;28;20223;-43
2023/07/23 13:35:19;;;;;;;2.58;2.38;;;;;;;28.44;32.60;97458.28;6226871;28;20318;-43
2023/07/23 13:38:23;;;;;;;2.70;2.50;;;;;;;28.45;33.39;97467.31;6212280;28;20589;-43
2023/07/23 13:41:26;;;;;;;2.85;2.55;;;;;;;28.44;33.37;97449.28;6229812;28;20227;-41
2023/07/23 13:44:29;;;;;;;4.30;2.80;;;;;;;28.39;34.23;97455.06;6228664;28;20232;-41
2023/07/23 13:47:32;;;;;;;3.38;3.08;;;;;;;28.49;31.75;97427.84;6228067;28;20323;-42
2023/07/23 13:50:35;;;;;;;3.20;2.90;;;;;;;28.61;32.16;97442.50;6230354;28;20593;-44
2023/07/23 13:53:53;;;;;;;3.35;3.00;;;;;;;28.57;33.10;97441.66;6229525;28;20308;-43
2023/07/23 13:56:55;;;;;;;2.83;2.63;;;;;;;28.55;34.10;97433.81;6231763;28;20250;-44
2023/07/23 13:59:58;;;;;;;4.63;3.38;;;;;;;28.44;34.31;97438.31;6230634;28;20358;-43
2023/07/23 14:03:01;;;;;;;4.22;3.30;;;;;;;28.40;33.99;97434.72;6224509;28;20232;-45
2023/07/23 14:06:04;;;;;;;4.40;3.03;;;;;;;28.28;34.92;97435.66;6228050;28;20711;-43
2023/07/23 14:09:08;;;;;;;3.40;3.10;;;;;;;28.22;35.72;97440.63;6227494;28;20296;-47
2023/07/23 14:12:11;;;;;;;3.75;3.08;;;;;;;28.16;34.96;97422.13;6228818;28;20303;-44
2023/07/23 14:15:14;;;;;;;4.10;3.53;;;;;;;28.22;34.31;97431.63;6219596;28;20231;-45
2023/07/23 14:18:18;;;;;;;3.88;3.30;;;;;;;28.13;33.73;97396.28;6203695;28;20358;-42
2023/07/23 14:21:21;;;;;;;3.90;3.10;;;;;;;28.28;34.21;97416.50;6229592;28;22460;-44
2023/07/23 14:24:24;;;;;;;5.75;3.53;;;;;;;28.11;36.23;97398.56;6228295;28;20235;-46